Main page
METAR-TAF:

METAR-TAF

Airports :

Oil platform

Euro, Netherlands

latitude: 51-59-52N, longitude: 3-16-30E, elevation: 18 m

Current weather observation

The report was made 43 minutes ago, at 11:25 UTC
Wind 16 kt from the South/Southwest
Temperature 8°C
Humidity 53%
Pressure 1003 hPa
Visibility 10 km or more

METAR: EHSA 251125Z AUTO 20016KT 9999 ///////// 08/M01 Q1003 W10/H11

Time: 14:08 (12:08 UTC)


TAF: missing

Weather observations and forecasts of more than 4000 airports (METAR and TAF reports).

The available stations are represented by yellow and red dots on the map.

Hover mouse over dot to see the name of the station.

Then click to see weather observations and forecasts.

To change the map : click on the green buttons with a black cross to zoom in, on the green button with a dash to zoom out, or on the green arrows for adjacent maps.


METAR-TAF: